sensor_id;sensor_type;location;lat;lon;timestamp;P1;durP1;ratioP1;P2;durP2;ratioP2
8312;SDS011;4194;43.408;24.626;2023-03-23T00:02:37;48.43;;;29.30;;
8312;SDS011;4194;43.408;24.626;2023-03-23T00:05:06;57.50;;;28.77;;
8312;SDS011;4194;43.408;24.626;2023-03-23T00:07:33;41.80;;;25.47;;
8312;SDS011;4194;43.408;24.626;2023-03-23T00:10:00;39.03;;;26.07;;
8312;SDS011;4194;43.408;24.626;2023-03-23T00:12:28;41.43;;;23.37;;
8312;SDS011;4194;43.408;24.626;2023-03-23T00:14:58;54.33;;;23.83;;
8312;SDS011;4194;43.408;24.626;2023-03-23T00:17:26;45.67;;;22.93;;
8312;SDS011;4194;43.408;24.626;2023-03-23T00:19:52;42.50;;;22.67;;
8312;SDS011;4194;43.408;24.626;2023-03-23T00:22:18;41.27;;;23.17;;
8312;SDS011;4194;43.408;24.626;2023-03-23T00:24:46;46.23;;;24.57;;
8312;SDS011;4194;43.408;24.626;2023-03-23T00:27:15;48.10;;;25.33;;
8312;SDS011;4194;43.408;24.626;2023-03-23T00:29:41;45.20;;;24.03;;
8312;SDS011;4194;43.408;24.626;2023-03-23T00:32:10;43.03;;;24.33;;
8312;SDS011;4194;43.408;24.626;2023-03-23T00:34:38;53.97;;;26.60;;
8312;SDS011;4194;43.408;24.626;2023-03-23T00:37:06;43.53;;;26.17;;
8312;SDS011;4194;43.408;24.626;2023-03-23T00:39:32;52.27;;;24.50;;
8312;SDS011;4194;43.408;24.626;2023-03-23T00:42:01;49.77;;;23.90;;
8312;SDS011;4194;43.408;24.626;2023-03-23T00:44:27;53.23;;;24.13;;
8312;SDS011;4194;43.408;24.626;2023-03-23T00:46:55;44.43;;;26.03;;
8312;SDS011;4194;43.408;24.626;2023-03-23T00:49:22;48.67;;;25.53;;
8312;SDS011;4194;43.408;24.626;2023-03-23T00:51:55;71.43;;;26.00;;
8312;SDS011;4194;43.408;24.626;2023-03-23T00:54:22;53.80;;;25.43;;
8312;SDS011;4194;43.408;24.626;2023-03-23T00:56:48;49.97;;;25.70;;
8312;SDS011;4194;43.408;24.626;2023-03-23T00:59:15;70.40;;;27.33;;
8312;SDS011;4194;43.408;24.626;2023-03-23T01:01:41;46.13;;;24.33;;
8312;SDS011;4194;43.408;24.626;2023-03-23T01:04:07;50.47;;;23.40;;
8312;SDS011;4194;43.408;24.626;2023-03-23T01:06:37;38.77;;;25.27;;
8312;SDS011;4194;43.408;24.626;2023-03-23T01:09:08;42.47;;;23.97;;
8312;SDS011;4194;43.408;24.626;2023-03-23T01:11:36;38.67;;;24.90;;
8312;SDS011;4194;43.408;24.626;2023-03-23T01:14:02;42.20;;;23.40;;
8312;SDS011;4194;43.408;24.626;2023-03-23T01:16:28;42.30;;;26.27;;
8312;SDS011;4194;43.408;24.626;2023-03-23T01:18:54;37.57;;;23.13;;
8312;SDS011;4194;43.408;24.626;2023-03-23T01:21:20;43.13;;;24.33;;
8312;SDS011;4194;43.408;24.626;2023-03-23T01:23:47;36.40;;;23.73;;
8312;SDS011;4194;43.408;24.626;2023-03-23T01:26:14;39.13;;;25.83;;
8312;SDS011;4194;43.408;24.626;2023-03-23T01:28:43;35.37;;;23.17;;
8312;SDS011;4194;43.408;24.626;2023-03-23T01:31:10;35.80;;;24.03;;
8312;SDS011;4194;43.408;24.626;2023-03-23T01:33:41;37.30;;;25.40;;
8312;SDS011;4194;43.408;24.626;2023-03-23T01:36:08;36.93;;;24.43;;
8312;SDS011;4194;43.408;24.626;2023-03-23T01:38:45;42.33;;;26.13;;
8312;SDS011;4194;43.408;24.626;2023-03-23T01:41:11;40.97;;;25.50;;
8312;SDS011;4194;43.408;24.626;2023-03-23T01:43:58;41.93;;;25.97;;
8312;SDS011;4194;43.408;24.626;2023-03-23T01:46:34;46.17;;;26.30;;
8312;SDS011;4194;43.408;24.626;2023-03-23T01:49:08;44.00;;;26.63;;
8312;SDS011;4194;43.408;24.626;2023-03-23T01:51:40;44.43;;;25.97;;
8312;SDS011;4194;43.408;24.626;2023-03-23T01:54:15;45.20;;;30.38;;
8312;SDS011;4194;43.408;24.626;2023-03-23T01:56:47;41.40;;;26.80;;
8312;SDS011;4194;43.408;24.626;2023-03-23T01:59:17;40.13;;;25.93;;
8312;SDS011;4194;43.408;24.626;2023-03-23T02:01:43;38.00;;;25.33;;
8312;SDS011;4194;43.408;24.626;2023-03-23T02:04:11;39.90;;;24.77;;
8312;SDS011;4194;43.408;24.626;2023-03-23T02:06:39;36.93;;;24.77;;
8312;SDS011;4194;43.408;24.626;2023-03-23T02:09:05;34.90;;;23.67;;
8312;SDS011;4194;43.408;24.626;2023-03-23T02:11:34;32.67;;;23.27;;
8312;SDS011;4194;43.408;24.626;2023-03-23T02:13:59;34.27;;;23.80;;
8312;SDS011;4194;43.408;24.626;2023-03-23T02:16:34;32.80;;;23.17;;
8312;SDS011;4194;43.408;24.626;2023-03-23T02:19:27;31.53;;;22.40;;
8312;SDS011;4194;43.408;24.626;2023-03-23T02:42:05;39.20;;;25.17;;
8312;SDS011;4194;43.408;24.626;2023-03-23T02:44:32;44.13;;;28.17;;
8312;SDS011;4194;43.408;24.626;2023-03-23T02:47:02;39.80;;;26.57;;
8312;SDS011;4194;43.408;24.626;2023-03-23T02:49:31;43.70;;;28.50;;
8312;SDS011;4194;43.408;24.626;2023-03-23T02:52:01;48.30;;;28.17;;
8312;SDS011;4194;43.408;24.626;2023-03-23T02:54:30;48.57;;;27.33;;
8312;SDS011;4194;43.408;24.626;2023-03-23T02:56:56;41.30;;;26.50;;
8312;SDS011;4194;43.408;24.626;2023-03-23T02:59:23;46.00;;;26.60;;
8312;SDS011;4194;43.408;24.626;2023-03-23T03:01:50;45.30;;;27.60;;
8312;SDS011;4194;43.408;24.626;2023-03-23T03:04:21;45.33;;;27.87;;
8312;SDS011;4194;43.408;24.626;2023-03-23T03:09:33;42.57;;;26.70;;
8312;SDS011;4194;43.408;24.626;2023-03-23T03:12:24;44.17;;;27.37;;
8312;SDS011;4194;43.408;24.626;2023-03-23T03:14:58;46.73;;;26.50;;
8312;SDS011;4194;43.408;24.626;2023-03-23T03:17:30;47.97;;;27.03;;
8312;SDS011;4194;43.408;24.626;2023-03-23T03:20:01;51.30;;;28.67;;
8312;SDS011;4194;43.408;24.626;2023-03-23T03:22:32;51.73;;;27.90;;
8312;SDS011;4194;43.408;24.626;2023-03-23T03:25:02;51.03;;;28.13;;
8312;SDS011;4194;43.408;24.626;2023-03-23T03:27:29;49.30;;;27.97;;
8312;SDS011;4194;43.408;24.626;2023-03-23T03:29:57;48.10;;;27.53;;
8312;SDS011;4194;43.408;24.626;2023-03-23T03:32:29;48.63;;;28.77;;
8312;SDS011;4194;43.408;24.626;2023-03-23T03:35:01;46.80;;;28.17;;
8312;SDS011;4194;43.408;24.626;2023-03-23T03:37:32;53.37;;;29.53;;
8312;SDS011;4194;43.408;24.626;2023-03-23T03:40:02;47.60;;;28.10;;
8312;SDS011;4194;43.408;24.626;2023-03-23T03:42:33;58.07;;;31.60;;
8312;SDS011;4194;43.408;24.626;2023-03-23T03:44:58;53.20;;;30.87;;
8312;SDS011;4194;43.408;24.626;2023-03-23T03:47:24;51.83;;;29.43;;
8312;SDS011;4194;43.408;24.626;2023-03-23T03:49:50;56.27;;;31.93;;
8312;SDS011;4194;43.408;24.626;2023-03-23T03:52:15;53.70;;;29.63;;
8312;SDS011;4194;43.408;24.626;2023-03-23T03:54:41;48.40;;;29.07;;
8312;SDS011;4194;43.408;24.626;2023-03-23T03:57:06;55.03;;;32.60;;
8312;SDS011;4194;43.408;24.626;2023-03-23T03:59:33;55.37;;;31.03;;
8312;SDS011;4194;43.408;24.626;2023-03-23T04:01:59;58.03;;;31.47;;
8312;SDS011;4194;43.408;24.626;2023-03-23T04:04:25;55.87;;;31.70;;
8312;SDS011;4194;43.408;24.626;2023-03-23T04:06:51;57.50;;;32.10;;
8312;SDS011;4194;43.408;24.626;2023-03-23T04:09:16;56.83;;;31.83;;
8312;SDS011;4194;43.408;24.626;2023-03-23T04:11:44;60.90;;;33.50;;
8312;SDS011;4194;43.408;24.626;2023-03-23T04:14:10;59.63;;;31.37;;
8312;SDS011;4194;43.408;24.626;2023-03-23T04:16:36;63.97;;;32.87;;
8312;SDS011;4194;43.408;24.626;2023-03-23T04:19:01;64.87;;;34.40;;
8312;SDS011;4194;43.408;24.626;2023-03-23T04:21:27;67.50;;;33.20;;
8312;SDS011;4194;43.408;24.626;2023-03-23T04:23:54;66.87;;;35.23;;
8312;SDS011;4194;43.408;24.626;2023-03-23T04:26:25;57.47;;;33.40;;
8312;SDS011;4194;43.408;24.626;2023-03-23T04:28:53;62.37;;;33.27;;
8312;SDS011;4194;43.408;24.626;2023-03-23T04:31:20;58.10;;;33.87;;
8312;SDS011;4194;43.408;24.626;2023-03-23T04:33:49;61.63;;;32.70;;
8312;SDS011;4194;43.408;24.626;2023-03-23T04:36:17;61.53;;;33.57;;
8312;SDS011;4194;43.408;24.626;2023-03-23T04:38:43;55.67;;;33.37;;
8312;SDS011;4194;43.408;24.626;2023-03-23T04:41:10;60.60;;;32.93;;
8312;SDS011;4194;43.408;24.626;2023-03-23T04:43:36;49.63;;;29.77;;
8312;SDS011;4194;43.408;24.626;2023-03-23T04:46:06;45.67;;;29.37;;
8312;SDS011;4194;43.408;24.626;2023-03-23T04:48:33;40.17;;;27.70;;
8312;SDS011;4194;43.408;24.626;2023-03-23T04:51:01;41.30;;;26.90;;
8312;SDS011;4194;43.408;24.626;2023-03-23T04:53:29;39.63;;;27.00;;
8312;SDS011;4194;43.408;24.626;2023-03-23T04:55:55;37.67;;;27.37;;
8312;SDS011;4194;43.408;24.626;2023-03-23T04:58:21;39.27;;;27.40;;
8312;SDS011;4194;43.408;24.626;2023-03-23T05:00:49;41.93;;;27.70;;
8312;SDS011;4194;43.408;24.626;2023-03-23T05:03:16;40.43;;;26.53;;
8312;SDS011;4194;43.408;24.626;2023-03-23T05:05:42;37.70;;;26.50;;
8312;SDS011;4194;43.408;24.626;2023-03-23T05:08:12;37.73;;;25.93;;
8312;SDS011;4194;43.408;24.626;2023-03-23T05:10:38;41.17;;;26.43;;
8312;SDS011;4194;43.408;24.626;2023-03-23T05:13:04;35.77;;;25.23;;
8312;SDS011;4194;43.408;24.626;2023-03-23T05:15:31;41.53;;;27.70;;
8312;SDS011;4194;43.408;24.626;2023-03-23T05:17:56;41.13;;;28.00;;
8312;SDS011;4194;43.408;24.626;2023-03-23T05:20:22;43.43;;;28.57;;
8312;SDS011;4194;43.408;24.626;2023-03-23T05:22:49;42.80;;;28.20;;
8312;SDS011;4194;43.408;24.626;2023-03-23T05:25:16;42.63;;;27.23;;
8312;SDS011;4194;43.408;24.626;2023-03-23T05:27:45;42.23;;;25.33;;
8312;SDS011;4194;43.408;24.626;2023-03-23T05:30:14;41.87;;;27.40;;
8312;SDS011;4194;43.408;24.626;2023-03-23T05:32:42;43.80;;;28.23;;
8312;SDS011;4194;43.408;24.626;2023-03-23T05:35:10;47.77;;;30.00;;
8312;SDS011;4194;43.408;24.626;2023-03-23T05:37:36;45.50;;;27.57;;
8312;SDS011;4194;43.408;24.626;2023-03-23T05:40:03;45.20;;;29.07;;
8312;SDS011;4194;43.408;24.626;2023-03-23T05:42:31;41.83;;;27.90;;
8312;SDS011;4194;43.408;24.626;2023-03-23T05:44:58;37.17;;;25.53;;
8312;SDS011;4194;43.408;24.626;2023-03-23T05:47:24;36.70;;;25.60;;
8312;SDS011;4194;43.408;24.626;2023-03-23T05:49:53;37.07;;;25.13;;
8312;SDS011;4194;43.408;24.626;2023-03-23T05:52:19;39.97;;;26.93;;
8312;SDS011;4194;43.408;24.626;2023-03-23T05:54:45;33.93;;;24.43;;
8312;SDS011;4194;43.408;24.626;2023-03-23T05:57:11;34.93;;;24.07;;
8312;SDS011;4194;43.408;24.626;2023-03-23T05:59:37;43.67;;;25.57;;
8312;SDS011;4194;43.408;24.626;2023-03-23T06:02:03;36.07;;;25.77;;
8312;SDS011;4194;43.408;24.626;2023-03-23T06:04:30;45.47;;;26.50;;
8312;SDS011;4194;43.408;24.626;2023-03-23T06:06:58;40.87;;;27.33;;
8312;SDS011;4194;43.408;24.626;2023-03-23T06:09:27;40.47;;;26.77;;
8312;SDS011;4194;43.408;24.626;2023-03-23T06:11:53;37.90;;;27.77;;
8312;SDS011;4194;43.408;24.626;2023-03-23T06:14:18;43.60;;;25.40;;
8312;SDS011;4194;43.408;24.626;2023-03-23T06:16:44;43.30;;;27.80;;
8312;SDS011;4194;43.408;24.626;2023-03-23T06:19:10;41.30;;;26.23;;
8312;SDS011;4194;43.408;24.626;2023-03-23T06:21:36;39.43;;;25.93;;
8312;SDS011;4194;43.408;24.626;2023-03-23T06:24:02;39.38;;;29.08;;
8312;SDS011;4194;43.408;24.626;2023-03-23T06:26:30;38.23;;;26.47;;
8312;SDS011;4194;43.408;24.626;2023-03-23T06:28:58;40.70;;;29.33;;
8312;SDS011;4194;43.408;24.626;2023-03-23T06:31:24;56.03;;;40.43;;
8312;SDS011;4194;43.408;24.626;2023-03-23T06:33:52;51.53;;;31.23;;
8312;SDS011;4194;43.408;24.626;2023-03-23T06:36:18;52.30;;;31.87;;
8312;SDS011;4194;43.408;24.626;2023-03-23T06:38:44;36.60;;;26.87;;
8312;SDS011;4194;43.408;24.626;2023-03-23T06:41:10;37.30;;;26.07;;
8312;SDS011;4194;43.408;24.626;2023-03-23T06:43:36;39.23;;;27.00;;
8312;SDS011;4194;43.408;24.626;2023-03-23T06:46:04;44.40;;;27.40;;
8312;SDS011;4194;43.408;24.626;2023-03-23T06:48:31;45.83;;;32.73;;
8312;SDS011;4194;43.408;24.626;2023-03-23T06:50:57;48.60;;;31.90;;
8312;SDS011;4194;43.408;24.626;2023-03-23T06:53:22;45.33;;;31.70;;
8312;SDS011;4194;43.408;24.626;2023-03-23T06:55:50;48.80;;;31.43;;
8312;SDS011;4194;43.408;24.626;2023-03-23T06:58:16;43.07;;;30.57;;
8312;SDS011;4194;43.408;24.626;2023-03-23T07:00:42;45.00;;;29.27;;
8312;SDS011;4194;43.408;24.626;2023-03-23T07:03:08;49.93;;;31.53;;
8312;SDS011;4194;43.408;24.626;2023-03-23T07:05:34;42.97;;;30.50;;
8312;SDS011;4194;43.408;24.626;2023-03-23T07:08:03;40.27;;;27.17;;
8312;SDS011;4194;43.408;24.626;2023-03-23T07:10:46;40.20;;;28.43;;
8312;SDS011;4194;43.408;24.626;2023-03-23T07:13:12;36.63;;;27.37;;
8312;SDS011;4194;43.408;24.626;2023-03-23T07:15:38;36.13;;;28.97;;
8312;SDS011;4194;43.408;24.626;2023-03-23T07:18:04;36.43;;;25.03;;
8312;SDS011;4194;43.408;24.626;2023-03-23T07:20:30;40.70;;;28.83;;
8312;SDS011;4194;43.408;24.626;2023-03-23T07:22:56;61.40;;;41.17;;
8312;SDS011;4194;43.408;24.626;2023-03-23T07:25:22;34.07;;;25.20;;
8312;SDS011;4194;43.408;24.626;2023-03-23T07:27:47;32.70;;;24.47;;
8312;SDS011;4194;43.408;24.626;2023-03-23T07:30:13;36.10;;;26.80;;
8312;SDS011;4194;43.408;24.626;2023-03-23T07:32:40;35.27;;;25.83;;
8312;SDS011;4194;43.408;24.626;2023-03-23T07:35:06;34.13;;;26.30;;
8312;SDS011;4194;43.408;24.626;2023-03-23T07:37:34;42.43;;;27.80;;
8312;SDS011;4194;43.408;24.626;2023-03-23T07:40:00;36.03;;;27.47;;
8312;SDS011;4194;43.408;24.626;2023-03-23T07:42:39;31.40;;;23.93;;
8312;SDS011;4194;43.408;24.626;2023-03-23T07:45:10;31.93;;;25.03;;
8312;SDS011;4194;43.408;24.626;2023-03-23T07:47:37;33.43;;;25.40;;
8312;SDS011;4194;43.408;24.626;2023-03-23T07:50:03;35.27;;;24.93;;
8312;SDS011;4194;43.408;24.626;2023-03-23T07:52:30;30.63;;;23.33;;
8312;SDS011;4194;43.408;24.626;2023-03-23T07:54:56;30.93;;;23.20;;
8312;SDS011;4194;43.408;24.626;2023-03-23T07:57:22;29.93;;;21.93;;
8312;SDS011;4194;43.408;24.626;2023-03-23T07:59:48;34.63;;;25.00;;
8312;SDS011;4194;43.408;24.626;2023-03-23T08:02:14;33.23;;;26.17;;
8312;SDS011;4194;43.408;24.626;2023-03-23T08:04:40;34.10;;;25.27;;
8312;SDS011;4194;43.408;24.626;2023-03-23T08:07:07;37.43;;;27.70;;
8312;SDS011;4194;43.408;24.626;2023-03-23T08:09:33;37.03;;;26.33;;
8312;SDS011;4194;43.408;24.626;2023-03-23T08:11:59;33.67;;;25.23;;
8312;SDS011;4194;43.408;24.626;2023-03-23T08:14:24;31.17;;;24.90;;
8312;SDS011;4194;43.408;24.626;2023-03-23T08:16:52;31.60;;;22.67;;
8312;SDS011;4194;43.408;24.626;2023-03-23T08:19:20;26.03;;;20.13;;
8312;SDS011;4194;43.408;24.626;2023-03-23T08:21:46;19.17;;;16.88;;
8312;SDS011;4194;43.408;24.626;2023-03-23T08:24:11;24.90;;;21.37;;
8312;SDS011;4194;43.408;24.626;2023-03-23T08:26:38;24.83;;;20.43;;
8312;SDS011;4194;43.408;24.626;2023-03-23T08:29:04;25.97;;;19.93;;
8312;SDS011;4194;43.408;24.626;2023-03-23T08:31:31;27.80;;;21.80;;
8312;SDS011;4194;43.408;24.626;2023-03-23T08:33:59;26.40;;;22.50;;
8312;SDS011;4194;43.408;24.626;2023-03-23T08:36:25;28.07;;;21.67;;
8312;SDS011;4194;43.408;24.626;2023-03-23T08:38:52;28.00;;;23.30;;
8312;SDS011;4194;43.408;24.626;2023-03-23T08:41:18;26.43;;;21.17;;
8312;SDS011;4194;43.408;24.626;2023-03-23T08:43:45;28.80;;;23.23;;
8312;SDS011;4194;43.408;24.626;2023-03-23T08:46:11;29.43;;;23.37;;
8312;SDS011;4194;43.408;24.626;2023-03-23T08:48:37;27.77;;;21.73;;
8312;SDS011;4194;43.408;24.626;2023-03-23T08:51:04;29.47;;;22.97;;
8312;SDS011;4194;43.408;24.626;2023-03-23T08:53:31;29.37;;;22.10;;
8312;SDS011;4194;43.408;24.626;2023-03-23T08:56:05;28.43;;;22.47;;
8312;SDS011;4194;43.408;24.626;2023-03-23T08:58:32;25.17;;;20.80;;
8312;SDS011;4194;43.408;24.626;2023-03-23T09:01:02;23.30;;;18.90;;
8312;SDS011;4194;43.408;24.626;2023-03-23T09:03:30;19.00;;;16.07;;
8312;SDS011;4194;43.408;24.626;2023-03-23T09:05:59;22.90;;;17.77;;
8312;SDS011;4194;43.408;24.626;2023-03-23T09:08:27;23.03;;;18.70;;
8312;SDS011;4194;43.408;24.626;2023-03-23T09:10:54;22.80;;;19.17;;
8312;SDS011;4194;43.408;24.626;2023-03-23T09:13:23;22.57;;;16.77;;
8312;SDS011;4194;43.408;24.626;2023-03-23T09:15:48;21.10;;;12.57;;
8312;SDS011;4194;43.408;24.626;2023-03-23T09:18:15;19.40;;;15.43;;
8312;SDS011;4194;43.408;24.626;2023-03-23T09:20:42;19.77;;;15.90;;
8312;SDS011;4194;43.408;24.626;2023-03-23T09:23:08;22.43;;;15.73;;
8312;SDS011;4194;43.408;24.626;2023-03-23T09:25:34;20.03;;;14.77;;
8312;SDS011;4194;43.408;24.626;2023-03-23T09:28:00;18.80;;;15.17;;
8312;SDS011;4194;43.408;24.626;2023-03-23T09:30:27;16.63;;;12.83;;
8312;SDS011;4194;43.408;24.626;2023-03-23T09:32:55;17.23;;;14.47;;
8312;SDS011;4194;43.408;24.626;2023-03-23T09:35:23;19.93;;;14.83;;
8312;SDS011;4194;43.408;24.626;2023-03-23T09:37:50;19.50;;;14.83;;
8312;SDS011;4194;43.408;24.626;2023-03-23T09:40:18;19.20;;;13.80;;
8312;SDS011;4194;43.408;24.626;2023-03-23T09:42:49;17.57;;;12.97;;
8312;SDS011;4194;43.408;24.626;2023-03-23T09:50:51;19.03;;;14.43;;
8312;SDS011;4194;43.408;24.626;2023-03-23T09:53:30;16.50;;;12.73;;
8312;SDS011;4194;43.408;24.626;2023-03-23T09:56:13;14.93;;;12.13;;
8312;SDS011;4194;43.408;24.626;2023-03-23T10:01:21;17.80;;;14.10;;
8312;SDS011;4194;43.408;24.626;2023-03-23T10:03:52;18.53;;;14.10;;
8312;SDS011;4194;43.408;24.626;2023-03-23T10:06:26;16.90;;;13.40;;
8312;SDS011;4194;43.408;24.626;2023-03-23T10:08:53;16.93;;;12.73;;
8312;SDS011;4194;43.408;24.626;2023-03-23T10:16:27;15.97;;;13.57;;
8312;SDS011;4194;43.408;24.626;2023-03-23T10:21:23;16.63;;;13.10;;
8312;SDS011;4194;43.408;24.626;2023-03-23T10:24:01;17.00;;;13.03;;
8312;SDS011;4194;43.408;24.626;2023-03-23T10:35:52;13.83;;;11.67;;
8312;SDS011;4194;43.408;24.626;2023-03-23T10:38:44;15.73;;;12.20;;
8312;SDS011;4194;43.408;24.626;2023-03-23T10:41:17;17.50;;;12.70;;
8312;SDS011;4194;43.408;24.626;2023-03-23T10:43:44;12.97;;;11.50;;
8312;SDS011;4194;43.408;24.626;2023-03-23T10:49:06;13.07;;;11.67;;
8312;SDS011;4194;43.408;24.626;2023-03-23T10:51:37;14.37;;;11.40;;
8312;SDS011;4194;43.408;24.626;2023-03-23T10:54:07;13.77;;;10.97;;
8312;SDS011;4194;43.408;24.626;2023-03-23T10:56:41;13.07;;;10.57;;
8312;SDS011;4194;43.408;24.626;2023-03-23T10:59:17;11.90;;;10.70;;
8312;SDS011;4194;43.408;24.626;2023-03-23T11:01:47;13.10;;;10.33;;
8312;SDS011;4194;43.408;24.626;2023-03-23T11:04:17;11.17;;;9.97;;
8312;SDS011;4194;43.408;24.626;2023-03-23T11:06:45;12.47;;;9.73;;
8312;SDS011;4194;43.408;24.626;2023-03-23T11:09:21;12.87;;;10.03;;
8312;SDS011;4194;43.408;24.626;2023-03-23T11:11:57;12.00;;;10.17;;
8312;SDS011;4194;43.408;24.626;2023-03-23T11:14:33;16.63;;;10.57;;
8312;SDS011;4194;43.408;24.626;2023-03-23T11:17:04;12.27;;;9.73;;
8312;SDS011;4194;43.408;24.626;2023-03-23T11:19:44;12.53;;;10.43;;
8312;SDS011;4194;43.408;24.626;2023-03-23T11:22:22;15.40;;;10.13;;
8312;SDS011;4194;43.408;24.626;2023-03-23T11:24:54;13.60;;;10.00;;
8312;SDS011;4194;43.408;24.626;2023-03-23T11:27:21;12.23;;;10.03;;
8312;SDS011;4194;43.408;24.626;2023-03-23T11:29:53;10.17;;;8.97;;
8312;SDS011;4194;43.408;24.626;2023-03-23T11:32:24;11.10;;;10.00;;
8312;SDS011;4194;43.408;24.626;2023-03-23T11:34:59;14.07;;;10.53;;
8312;SDS011;4194;43.408;24.626;2023-03-23T11:42:42;15.27;;;9.70;;
8312;SDS011;4194;43.408;24.626;2023-03-23T11:50:59;13.30;;;10.43;;
8312;SDS011;4194;43.408;24.626;2023-03-23T11:56:25;12.13;;;9.90;;
8312;SDS011;4194;43.408;24.626;2023-03-23T11:58:55;11.93;;;10.70;;
8312;SDS011;4194;43.408;24.626;2023-03-23T12:12:09;11.13;;;8.83;;
8312;SDS011;4194;43.408;24.626;2023-03-23T12:14:41;13.70;;;11.07;;
8312;SDS011;4194;43.408;24.626;2023-03-23T12:33:42;12.20;;;9.90;;
8312;SDS011;4194;43.408;24.626;2023-03-23T12:44:54;9.63;;;8.00;;
8312;SDS011;4194;43.408;24.626;2023-03-23T12:47:35;10.50;;;9.23;;
8312;SDS011;4194;43.408;24.626;2023-03-23T12:53:02;15.23;;;10.03;;
8312;SDS011;4194;43.408;24.626;2023-03-23T12:55:39;12.47;;;8.43;;
8312;SDS011;4194;43.408;24.626;2023-03-23T12:58:21;9.03;;;7.37;;
8312;SDS011;4194;43.408;24.626;2023-03-23T13:01:02;12.60;;;7.80;;
8312;SDS011;4194;43.408;24.626;2023-03-23T13:04:13;9.93;;;7.43;;
8312;SDS011;4194;43.408;24.626;2023-03-23T13:11:31;7.93;;;6.03;;
8312;SDS011;4194;43.408;24.626;2023-03-23T13:16:59;9.53;;;6.97;;
8312;SDS011;4194;43.408;24.626;2023-03-23T13:24:59;12.30;;;8.00;;
8312;SDS011;4194;43.408;24.626;2023-03-23T13:27:34;9.77;;;7.40;;
8312;SDS011;4194;43.408;24.626;2023-03-23T13:30:00;9.00;;;7.57;;
8312;SDS011;4194;43.408;24.626;2023-03-23T13:32:33;9.37;;;7.50;;
8312;SDS011;4194;43.408;24.626;2023-03-23T13:35:04;7.97;;;7.17;;
8312;SDS011;4194;43.408;24.626;2023-03-23T13:37:40;7.30;;;6.60;;
8312;SDS011;4194;43.408;24.626;2023-03-23T13:42:54;8.03;;;6.70;;
8312;SDS011;4194;43.408;24.626;2023-03-23T13:45:23;8.63;;;6.80;;
8312;SDS011;4194;43.408;24.626;2023-03-23T13:47:49;8.77;;;7.07;;
8312;SDS011;4194;43.408;24.626;2023-03-23T13:50:28;8.20;;;6.77;;
8312;SDS011;4194;43.408;24.626;2023-03-23T13:53:00;8.07;;;7.27;;
8312;SDS011;4194;43.408;24.626;2023-03-23T14:13:23;7.70;;;6.90;;
8312;SDS011;4194;43.408;24.626;2023-03-23T14:18:29;7.53;;;6.50;;
8312;SDS011;4194;43.408;24.626;2023-03-23T14:21:03;11.63;;;6.90;;
8312;SDS011;4194;43.408;24.626;2023-03-23T14:23:31;7.67;;;6.30;;
8312;SDS011;4194;43.408;24.626;2023-03-23T14:25:59;7.00;;;6.30;;
8312;SDS011;4194;43.408;24.626;2023-03-23T14:28:38;8.03;;;6.30;;
8312;SDS011;4194;43.408;24.626;2023-03-23T14:31:08;9.63;;;6.00;;
8312;SDS011;4194;43.408;24.626;2023-03-23T14:33:38;6.77;;;6.07;;
8312;SDS011;4194;43.408;24.626;2023-03-23T14:36:07;7.93;;;6.60;;
8312;SDS011;4194;43.408;24.626;2023-03-23T14:38:33;7.40;;;5.93;;
8312;SDS011;4194;43.408;24.626;2023-03-23T14:41:00;8.27;;;6.43;;
8312;SDS011;4194;43.408;24.626;2023-03-23T14:43:26;8.50;;;6.83;;
8312;SDS011;4194;43.408;24.626;2023-03-23T14:45:53;9.53;;;6.83;;
8312;SDS011;4194;43.408;24.626;2023-03-23T14:48:21;8.47;;;6.97;;
8312;SDS011;4194;43.408;24.626;2023-03-23T14:50:51;8.20;;;6.93;;
8312;SDS011;4194;43.408;24.626;2023-03-23T14:53:28;6.70;;;5.57;;
8312;SDS011;4194;43.408;24.626;2023-03-23T14:56:12;7.40;;;6.23;;
8312;SDS011;4194;43.408;24.626;2023-03-23T14:58:46;9.73;;;6.60;;
8312;SDS011;4194;43.408;24.626;2023-03-23T15:01:15;7.37;;;6.60;;
8312;SDS011;4194;43.408;24.626;2023-03-23T15:03:56;6.90;;;6.20;;
8312;SDS011;4194;43.408;24.626;2023-03-23T15:06:22;6.87;;;6.10;;
8312;SDS011;4194;43.408;24.626;2023-03-23T15:08:53;6.17;;;5.67;;
8312;SDS011;4194;43.408;24.626;2023-03-23T15:11:28;9.17;;;6.53;;
8312;SDS011;4194;43.408;24.626;2023-03-23T15:13:58;7.33;;;6.33;;
8312;SDS011;4194;43.408;24.626;2023-03-23T15:16:31;7.57;;;6.77;;
8312;SDS011;4194;43.408;24.626;2023-03-23T15:19:00;6.73;;;6.23;;
8312;SDS011;4194;43.408;24.626;2023-03-23T15:24:02;9.73;;;8.17;;
8312;SDS011;4194;43.408;24.626;2023-03-23T15:26:43;8.93;;;7.10;;
8312;SDS011;4194;43.408;24.626;2023-03-23T15:31:45;9.20;;;7.87;;
8312;SDS011;4194;43.408;24.626;2023-03-23T15:34:15;10.13;;;7.33;;
8312;SDS011;4194;43.408;24.626;2023-03-23T15:36:54;8.93;;;7.60;;
8312;SDS011;4194;43.408;24.626;2023-03-23T15:39:25;8.60;;;7.70;;
8312;SDS011;4194;43.408;24.626;2023-03-23T15:41:52;8.70;;;7.20;;
8312;SDS011;4194;43.408;24.626;2023-03-23T15:44:26;9.57;;;7.80;;
8312;SDS011;4194;43.408;24.626;2023-03-23T15:47:12;8.80;;;7.87;;
8312;SDS011;4194;43.408;24.626;2023-03-23T15:49:38;12.47;;;10.43;;
8312;SDS011;4194;43.408;24.626;2023-03-23T15:52:06;15.27;;;11.33;;
8312;SDS011;4194;43.408;24.626;2023-03-23T15:54:36;13.70;;;11.37;;
8312;SDS011;4194;43.408;24.626;2023-03-23T15:57:03;11.07;;;8.80;;
8312;SDS011;4194;43.408;24.626;2023-03-23T15:59:29;12.03;;;10.00;;
8312;SDS011;4194;43.408;24.626;2023-03-23T16:01:54;12.73;;;8.90;;
8312;SDS011;4194;43.408;24.626;2023-03-23T16:04:21;10.73;;;8.00;;
8312;SDS011;4194;43.408;24.626;2023-03-23T16:06:47;8.90;;;7.80;;
8312;SDS011;4194;43.408;24.626;2023-03-23T16:09:16;9.67;;;8.47;;
8312;SDS011;4194;43.408;24.626;2023-03-23T16:11:43;10.50;;;8.70;;
8312;SDS011;4194;43.408;24.626;2023-03-23T16:14:10;13.53;;;10.10;;
8312;SDS011;4194;43.408;24.626;2023-03-23T16:16:37;10.70;;;7.97;;
8312;SDS011;4194;43.408;24.626;2023-03-23T16:19:05;10.63;;;7.63;;
8312;SDS011;4194;43.408;24.626;2023-03-23T16:21:31;9.40;;;7.90;;
8312;SDS011;4194;43.408;24.626;2023-03-23T16:23:57;9.37;;;8.17;;
8312;SDS011;4194;43.408;24.626;2023-03-23T16:26:23;10.67;;;7.47;;
8312;SDS011;4194;43.408;24.626;2023-03-23T16:28:49;12.83;;;8.10;;
8312;SDS011;4194;43.408;24.626;2023-03-23T16:31:15;12.10;;;8.63;;
8312;SDS011;4194;43.408;24.626;2023-03-23T16:33:41;9.93;;;8.80;;
8312;SDS011;4194;43.408;24.626;2023-03-23T16:36:09;10.53;;;8.70;;
8312;SDS011;4194;43.408;24.626;2023-03-23T16:38:36;12.93;;;9.50;;
8312;SDS011;4194;43.408;24.626;2023-03-23T16:41:02;15.73;;;9.30;;
8312;SDS011;4194;43.408;24.626;2023-03-23T16:43:28;11.97;;;9.23;;
8312;SDS011;4194;43.408;24.626;2023-03-23T16:45:54;15.63;;;8.83;;
8312;SDS011;4194;43.408;24.626;2023-03-23T16:48:21;11.27;;;8.80;;
8312;SDS011;4194;43.408;24.626;2023-03-23T16:50:47;13.57;;;8.53;;
8312;SDS011;4194;43.408;24.626;2023-03-23T16:53:13;11.97;;;8.83;;
8312;SDS011;4194;43.408;24.626;2023-03-23T16:55:40;11.53;;;8.50;;
8312;SDS011;4194;43.408;24.626;2023-03-23T16:58:08;13.83;;;10.37;;
8312;SDS011;4194;43.408;24.626;2023-03-23T17:00:33;18.93;;;10.93;;
8312;SDS011;4194;43.408;24.626;2023-03-23T17:02:59;16.13;;;11.27;;
8312;SDS011;4194;43.408;24.626;2023-03-23T17:05:26;16.90;;;11.23;;
8312;SDS011;4194;43.408;24.626;2023-03-23T17:07:53;18.70;;;11.87;;
8312;SDS011;4194;43.408;24.626;2023-03-23T17:10:20;20.67;;;12.13;;
8312;SDS011;4194;43.408;24.626;2023-03-23T17:12:47;19.40;;;12.37;;
8312;SDS011;4194;43.408;24.626;2023-03-23T17:15:13;19.77;;;13.07;;
8312;SDS011;4194;43.408;24.626;2023-03-23T17:17:39;19.00;;;11.63;;